sensor_id;sensor_type;location;lat;lon;timestamp;P1;durP1;ratioP1;P2;durP2;ratioP2
84054;SDS011;74141;51.504;7.122;2024-02-15T00:00:58;19.17;;;10.80;;
84054;SDS011;74141;51.504;7.122;2024-02-15T00:03:24;17.60;;;10.60;;
84054;SDS011;74141;51.504;7.122;2024-02-15T00:05:50;21.58;;;10.32;;
84054;SDS011;74141;51.504;7.122;2024-02-15T00:08:15;17.60;;;9.77;;
84054;SDS011;74141;51.504;7.122;2024-02-15T00:10:40;17.77;;;9.73;;
84054;SDS011;74141;51.504;7.122;2024-02-15T00:13:06;18.63;;;9.80;;
84054;SDS011;74141;51.504;7.122;2024-02-15T00:15:31;17.13;;;9.55;;
84054;SDS011;74141;51.504;7.122;2024-02-15T00:17:57;20.50;;;9.43;;
84054;SDS011;74141;51.504;7.122;2024-02-15T00:20:22;15.60;;;10.00;;
84054;SDS011;74141;51.504;7.122;2024-02-15T00:22:47;22.48;;;12.00;;
84054;SDS011;74141;51.504;7.122;2024-02-15T00:25:13;16.95;;;9.20;;
84054;SDS011;74141;51.504;7.122;2024-02-15T00:27:38;24.48;;;11.30;;
84054;SDS011;74141;51.504;7.122;2024-02-15T00:30:04;15.68;;;9.32;;
84054;SDS011;74141;51.504;7.122;2024-02-15T00:32:32;18.30;;;9.18;;
84054;SDS011;74141;51.504;7.122;2024-02-15T00:34:58;17.13;;;9.93;;
84054;SDS011;74141;51.504;7.122;2024-02-15T00:37:23;18.70;;;9.90;;
84054;SDS011;74141;51.504;7.122;2024-02-15T00:39:48;23.55;;;10.40;;
84054;SDS011;74141;51.504;7.122;2024-02-15T00:42:14;20.25;;;10.45;;
84054;SDS011;74141;51.504;7.122;2024-02-15T00:44:40;22.70;;;10.85;;
84054;SDS011;74141;51.504;7.122;2024-02-15T00:47:06;19.88;;;10.25;;
84054;SDS011;74141;51.504;7.122;2024-02-15T00:49:32;22.98;;;10.57;;
84054;SDS011;74141;51.504;7.122;2024-02-15T00:51:58;17.70;;;10.30;;
84054;SDS011;74141;51.504;7.122;2024-02-15T00:54:24;16.88;;;10.75;;
84054;SDS011;74141;51.504;7.122;2024-02-15T00:56:49;18.57;;;10.20;;
84054;SDS011;74141;51.504;7.122;2024-02-15T00:59:16;18.13;;;10.88;;
84054;SDS011;74141;51.504;7.122;2024-02-15T01:01:41;25.67;;;10.95;;
84054;SDS011;74141;51.504;7.122;2024-02-15T01:04:06;21.90;;;11.53;;
84054;SDS011;74141;51.504;7.122;2024-02-15T01:06:32;22.83;;;12.10;;
84054;SDS011;74141;51.504;7.122;2024-02-15T01:08:57;20.55;;;11.52;;
84054;SDS011;74141;51.504;7.122;2024-02-15T01:11:26;19.63;;;11.75;;
84054;SDS011;74141;51.504;7.122;2024-02-15T01:13:53;20.98;;;11.20;;
84054;SDS011;74141;51.504;7.122;2024-02-15T01:16:18;23.48;;;12.13;;
84054;SDS011;74141;51.504;7.122;2024-02-15T01:18:43;22.83;;;12.30;;
84054;SDS011;74141;51.504;7.122;2024-02-15T01:21:09;21.42;;;11.75;;
84054;SDS011;74141;51.504;7.122;2024-02-15T01:23:36;19.63;;;12.48;;
84054;SDS011;74141;51.504;7.122;2024-02-15T01:26:01;21.38;;;11.43;;
84054;SDS011;74141;51.504;7.122;2024-02-15T01:28:27;19.60;;;10.52;;
84054;SDS011;74141;51.504;7.122;2024-02-15T01:30:52;21.65;;;12.10;;
84054;SDS011;74141;51.504;7.122;2024-02-15T01:33:19;24.33;;;11.20;;
84054;SDS011;74141;51.504;7.122;2024-02-15T01:35:45;27.38;;;11.57;;
84054;SDS011;74141;51.504;7.122;2024-02-15T01:38:10;18.30;;;10.13;;
84054;SDS011;74141;51.504;7.122;2024-02-15T01:40:35;20.58;;;11.60;;
84054;SDS011;74141;51.504;7.122;2024-02-15T01:43:00;21.42;;;10.13;;
84054;SDS011;74141;51.504;7.122;2024-02-15T01:45:26;24.30;;;11.50;;
84054;SDS011;74141;51.504;7.122;2024-02-15T01:47:53;23.38;;;10.82;;
84054;SDS011;74141;51.504;7.122;2024-02-15T01:50:18;25.80;;;10.57;;
84054;SDS011;74141;51.504;7.122;2024-02-15T01:52:46;20.30;;;10.98;;
84054;SDS011;74141;51.504;7.122;2024-02-15T01:55:13;22.88;;;11.13;;
84054;SDS011;74141;51.504;7.122;2024-02-15T01:57:42;21.48;;;11.27;;
84054;SDS011;74141;51.504;7.122;2024-02-15T02:00:12;17.02;;;10.52;;
84054;SDS011;74141;51.504;7.122;2024-02-15T02:02:41;19.60;;;10.40;;
84054;SDS011;74141;51.504;7.122;2024-02-15T02:05:13;17.90;;;10.63;;
84054;SDS011;74141;51.504;7.122;2024-02-15T02:07:38;23.45;;;10.15;;
84054;SDS011;74141;51.504;7.122;2024-02-15T02:10:12;20.35;;;9.70;;
84054;SDS011;74141;51.504;7.122;2024-02-15T02:12:39;25.05;;;10.35;;
84054;SDS011;74141;51.504;7.122;2024-02-15T02:15:14;22.85;;;11.60;;
84054;SDS011;74141;51.504;7.122;2024-02-15T02:17:39;23.98;;;11.50;;
84054;SDS011;74141;51.504;7.122;2024-02-15T02:20:15;31.23;;;12.05;;
84054;SDS011;74141;51.504;7.122;2024-02-15T02:22:40;21.25;;;10.38;;
84054;SDS011;74141;51.504;7.122;2024-02-15T02:25:12;20.63;;;11.05;;
84054;SDS011;74141;51.504;7.122;2024-02-15T02:27:38;21.45;;;10.48;;
84054;SDS011;74141;51.504;7.122;2024-02-15T02:30:16;26.63;;;9.98;;
84054;SDS011;74141;51.504;7.122;2024-02-15T02:32:46;22.98;;;10.15;;
84054;SDS011;74141;51.504;7.122;2024-02-15T02:35:12;20.88;;;10.20;;
84054;SDS011;74141;51.504;7.122;2024-02-15T02:37:38;18.45;;;10.23;;
84054;SDS011;74141;51.504;7.122;2024-02-15T02:40:13;21.55;;;9.25;;
84054;SDS011;74141;51.504;7.122;2024-02-15T02:42:51;25.00;;;9.23;;
84054;SDS011;74141;51.504;7.122;2024-02-15T02:45:18;19.90;;;8.82;;
84054;SDS011;74141;51.504;7.122;2024-02-15T02:47:45;19.85;;;9.57;;
84054;SDS011;74141;51.504;7.122;2024-02-15T02:50:11;16.30;;;8.90;;
84054;SDS011;74141;51.504;7.122;2024-02-15T02:52:37;18.67;;;7.93;;
84054;SDS011;74141;51.504;7.122;2024-02-15T02:55:13;18.02;;;8.55;;
84054;SDS011;74141;51.504;7.122;2024-02-15T02:57:38;16.50;;;7.55;;
84054;SDS011;74141;51.504;7.122;2024-02-15T03:00:04;15.60;;;7.40;;
84054;SDS011;74141;51.504;7.122;2024-02-15T03:02:33;19.50;;;6.88;;
84054;SDS011;74141;51.504;7.122;2024-02-15T03:05:02;11.43;;;6.10;;
84054;SDS011;74141;51.504;7.122;2024-02-15T03:07:29;18.23;;;6.53;;
84054;SDS011;74141;51.504;7.122;2024-02-15T03:09:57;14.13;;;6.90;;
84054;SDS011;74141;51.504;7.122;2024-02-15T03:12:22;15.48;;;7.60;;
84054;SDS011;74141;51.504;7.122;2024-02-15T03:14:47;16.53;;;6.57;;
84054;SDS011;74141;51.504;7.122;2024-02-15T03:17:13;15.30;;;5.63;;
84054;SDS011;74141;51.504;7.122;2024-02-15T03:19:38;13.27;;;5.90;;
84054;SDS011;74141;51.504;7.122;2024-02-15T03:22:03;9.80;;;6.27;;
84054;SDS011;74141;51.504;7.122;2024-02-15T03:24:29;15.00;;;6.75;;
84054;SDS011;74141;51.504;7.122;2024-02-15T03:26:54;16.52;;;6.80;;
84054;SDS011;74141;51.504;7.122;2024-02-15T03:29:20;20.23;;;7.40;;
84054;SDS011;74141;51.504;7.122;2024-02-15T03:31:46;10.82;;;5.78;;
84054;SDS011;74141;51.504;7.122;2024-02-15T03:34:12;9.75;;;5.55;;
84054;SDS011;74141;51.504;7.122;2024-02-15T03:36:39;12.80;;;5.65;;
84054;SDS011;74141;51.504;7.122;2024-02-15T03:39:04;12.87;;;5.77;;
84054;SDS011;74141;51.504;7.122;2024-02-15T03:41:31;13.35;;;6.13;;
84054;SDS011;74141;51.504;7.122;2024-02-15T03:43:57;11.05;;;5.18;;
84054;SDS011;74141;51.504;7.122;2024-02-15T03:46:24;16.63;;;6.15;;
84054;SDS011;74141;51.504;7.122;2024-02-15T03:48:50;15.52;;;5.65;;
84054;SDS011;74141;51.504;7.122;2024-02-15T03:51:16;12.88;;;5.70;;
84054;SDS011;74141;51.504;7.122;2024-02-15T03:53:43;15.15;;;5.88;;
84054;SDS011;74141;51.504;7.122;2024-02-15T03:56:09;10.32;;;5.38;;
84054;SDS011;74141;51.504;7.122;2024-02-15T03:58:34;7.03;;;4.63;;
84054;SDS011;74141;51.504;7.122;2024-02-15T04:01:01;12.07;;;5.65;;
84054;SDS011;74141;51.504;7.122;2024-02-15T04:03:29;11.32;;;5.55;;
84054;SDS011;74141;51.504;7.122;2024-02-15T04:05:57;11.77;;;5.53;;
84054;SDS011;74141;51.504;7.122;2024-02-15T04:08:22;10.70;;;6.30;;
84054;SDS011;74141;51.504;7.122;2024-02-15T04:10:48;17.48;;;6.88;;
84054;SDS011;74141;51.504;7.122;2024-02-15T04:13:14;8.27;;;5.70;;
84054;SDS011;74141;51.504;7.122;2024-02-15T04:15:39;12.32;;;5.22;;
84054;SDS011;74141;51.504;7.122;2024-02-15T04:18:04;11.77;;;5.50;;
84054;SDS011;74141;51.504;7.122;2024-02-15T04:20:30;10.98;;;5.63;;
84054;SDS011;74141;51.504;7.122;2024-02-15T04:22:56;12.13;;;5.68;;
84054;SDS011;74141;51.504;7.122;2024-02-15T04:25:22;14.75;;;5.65;;
84054;SDS011;74141;51.504;7.122;2024-02-15T04:30:17;14.30;;;6.10;;
84054;SDS011;74141;51.504;7.122;2024-02-15T04:32:43;12.52;;;5.13;;
84054;SDS011;74141;51.504;7.122;2024-02-15T04:35:08;14.50;;;5.28;;
84054;SDS011;74141;51.504;7.122;2024-02-15T04:37:34;9.38;;;4.65;;
84054;SDS011;74141;51.504;7.122;2024-02-15T04:40:01;8.40;;;4.95;;
84054;SDS011;74141;51.504;7.122;2024-02-15T04:42:33;9.88;;;5.30;;
84054;SDS011;74141;51.504;7.122;2024-02-15T04:44:59;7.90;;;4.35;;
84054;SDS011;74141;51.504;7.122;2024-02-15T04:47:24;14.32;;;4.95;;
84054;SDS011;74141;51.504;7.122;2024-02-15T04:49:50;12.63;;;5.18;;
84054;SDS011;74141;51.504;7.122;2024-02-15T04:52:15;9.40;;;4.97;;
84054;SDS011;74141;51.504;7.122;2024-02-15T04:54:42;9.63;;;4.57;;
84054;SDS011;74141;51.504;7.122;2024-02-15T04:57:08;10.63;;;4.97;;
84054;SDS011;74141;51.504;7.122;2024-02-15T04:59:36;12.60;;;5.05;;
84054;SDS011;74141;51.504;7.122;2024-02-15T05:02:02;8.60;;;4.72;;
84054;SDS011;74141;51.504;7.122;2024-02-15T05:04:27;8.10;;;4.75;;
84054;SDS011;74141;51.504;7.122;2024-02-15T05:06:53;10.25;;;4.68;;
84054;SDS011;74141;51.504;7.122;2024-02-15T05:09:18;8.60;;;4.30;;
84054;SDS011;74141;51.504;7.122;2024-02-15T05:11:43;11.50;;;4.20;;
84054;SDS011;74141;51.504;7.122;2024-02-15T05:14:15;8.48;;;3.70;;
84054;SDS011;74141;51.504;7.122;2024-02-15T05:16:48;7.28;;;3.78;;
84054;SDS011;74141;51.504;7.122;2024-02-15T05:19:16;11.55;;;4.22;;
84054;SDS011;74141;51.504;7.122;2024-02-15T05:21:46;9.15;;;4.68;;
84054;SDS011;74141;51.504;7.122;2024-02-15T05:24:12;8.57;;;4.13;;
84054;SDS011;74141;51.504;7.122;2024-02-15T05:26:38;8.20;;;3.90;;
84054;SDS011;74141;51.504;7.122;2024-02-15T05:29:04;5.07;;;3.47;;
84054;SDS011;74141;51.504;7.122;2024-02-15T05:31:30;5.57;;;3.08;;
84054;SDS011;74141;51.504;7.122;2024-02-15T05:33:55;8.43;;;3.10;;
84054;SDS011;74141;51.504;7.122;2024-02-15T05:36:21;4.95;;;3.25;;
84054;SDS011;74141;51.504;7.122;2024-02-15T05:38:52;7.38;;;2.97;;
84054;SDS011;74141;51.504;7.122;2024-02-15T05:41:18;5.03;;;3.20;;
84054;SDS011;74141;51.504;7.122;2024-02-15T05:43:45;6.28;;;2.88;;
84054;SDS011;74141;51.504;7.122;2024-02-15T05:46:11;5.32;;;3.00;;
84054;SDS011;74141;51.504;7.122;2024-02-15T05:48:38;5.38;;;2.90;;
84054;SDS011;74141;51.504;7.122;2024-02-15T05:51:04;5.22;;;2.90;;
84054;SDS011;74141;51.504;7.122;2024-02-15T05:53:31;6.68;;;3.15;;
84054;SDS011;74141;51.504;7.122;2024-02-15T05:56:01;6.65;;;3.13;;
84054;SDS011;74141;51.504;7.122;2024-02-15T05:58:29;7.55;;;3.13;;
84054;SDS011;74141;51.504;7.122;2024-02-15T06:00:54;5.18;;;2.80;;
84054;SDS011;74141;51.504;7.122;2024-02-15T06:03:20;6.13;;;3.85;;
84054;SDS011;74141;51.504;7.122;2024-02-15T06:05:51;6.07;;;2.72;;
84054;SDS011;74141;51.504;7.122;2024-02-15T06:08:16;3.75;;;2.55;;
84054;SDS011;74141;51.504;7.122;2024-02-15T06:10:43;7.20;;;3.17;;
84054;SDS011;74141;51.504;7.122;2024-02-15T06:13:08;5.32;;;2.70;;
84054;SDS011;74141;51.504;7.122;2024-02-15T06:15:36;5.65;;;3.00;;
84054;SDS011;74141;51.504;7.122;2024-02-15T06:18:01;4.37;;;2.47;;
84054;SDS011;74141;51.504;7.122;2024-02-15T06:20:33;5.40;;;2.97;;
84054;SDS011;74141;51.504;7.122;2024-02-15T06:22:59;6.38;;;3.20;;
84054;SDS011;74141;51.504;7.122;2024-02-15T06:25:24;6.30;;;3.03;;
84054;SDS011;74141;51.504;7.122;2024-02-15T06:27:51;6.78;;;3.13;;
84054;SDS011;74141;51.504;7.122;2024-02-15T06:30:23;6.05;;;3.78;;
84054;SDS011;74141;51.504;7.122;2024-02-15T06:33:06;6.55;;;3.00;;
84054;SDS011;74141;51.504;7.122;2024-02-15T06:35:50;4.68;;;2.90;;
84054;SDS011;74141;51.504;7.122;2024-02-15T06:38:34;5.47;;;3.00;;
84054;SDS011;74141;51.504;7.122;2024-02-15T06:41:18;5.78;;;3.08;;
84054;SDS011;74141;51.504;7.122;2024-02-15T06:43:44;7.65;;;3.50;;
84054;SDS011;74141;51.504;7.122;2024-02-15T06:46:09;5.63;;;3.50;;
84054;SDS011;74141;51.504;7.122;2024-02-15T06:48:41;7.88;;;3.45;;
84054;SDS011;74141;51.504;7.122;2024-02-15T06:51:11;7.38;;;3.60;;
84054;SDS011;74141;51.504;7.122;2024-02-15T06:53:39;8.68;;;3.70;;
84054;SDS011;74141;51.504;7.122;2024-02-15T06:56:04;9.32;;;3.80;;
84054;SDS011;74141;51.504;7.122;2024-02-15T06:58:30;10.23;;;4.18;;
84054;SDS011;74141;51.504;7.122;2024-02-15T07:00:55;6.87;;;3.50;;
84054;SDS011;74141;51.504;7.122;2024-02-15T07:03:20;8.20;;;3.45;;
84054;SDS011;74141;51.504;7.122;2024-02-15T07:05:47;12.52;;;3.75;;
84054;SDS011;74141;51.504;7.122;2024-02-15T07:08:13;8.70;;;3.72;;
84054;SDS011;74141;51.504;7.122;2024-02-15T07:10:39;5.53;;;3.50;;
84054;SDS011;74141;51.504;7.122;2024-02-15T07:13:04;11.38;;;3.83;;
84054;SDS011;74141;51.504;7.122;2024-02-15T07:15:31;7.07;;;3.83;;
84054;SDS011;74141;51.504;7.122;2024-02-15T07:18:02;7.00;;;3.97;;
84054;SDS011;74141;51.504;7.122;2024-02-15T07:20:31;15.40;;;5.18;;
84054;SDS011;74141;51.504;7.122;2024-02-15T07:22:56;6.15;;;4.35;;
84054;SDS011;74141;51.504;7.122;2024-02-15T07:25:23;11.13;;;5.07;;
84054;SDS011;74141;51.504;7.122;2024-02-15T07:27:48;15.55;;;5.10;;
84054;SDS011;74141;51.504;7.122;2024-02-15T07:30:14;10.33;;;5.53;;
84054;SDS011;74141;51.504;7.122;2024-02-15T07:32:39;17.48;;;6.50;;
84054;SDS011;74141;51.504;7.122;2024-02-15T07:35:05;12.45;;;6.22;;
84054;SDS011;74141;51.504;7.122;2024-02-15T07:37:32;12.77;;;5.80;;
84054;SDS011;74141;51.504;7.122;2024-02-15T07:39:58;15.23;;;5.53;;
84054;SDS011;74141;51.504;7.122;2024-02-15T07:42:24;14.48;;;5.80;;
84054;SDS011;74141;51.504;7.122;2024-02-15T07:44:50;15.35;;;5.45;;
84054;SDS011;74141;51.504;7.122;2024-02-15T07:47:17;9.93;;;4.40;;
84054;SDS011;74141;51.504;7.122;2024-02-15T07:49:46;10.48;;;4.70;;
84054;SDS011;74141;51.504;7.122;2024-02-15T07:52:11;14.57;;;5.97;;
84054;SDS011;74141;51.504;7.122;2024-02-15T07:54:38;12.50;;;5.15;;
84054;SDS011;74141;51.504;7.122;2024-02-15T07:57:04;10.32;;;4.60;;
84054;SDS011;74141;51.504;7.122;2024-02-15T07:59:30;9.68;;;4.65;;
84054;SDS011;74141;51.504;7.122;2024-02-15T08:01:55;11.40;;;4.20;;
84054;SDS011;74141;51.504;7.122;2024-02-15T08:04:20;9.18;;;4.60;;
84054;SDS011;74141;51.504;7.122;2024-02-15T08:06:46;8.18;;;4.03;;
84054;SDS011;74141;51.504;7.122;2024-02-15T08:09:13;8.40;;;4.47;;
84054;SDS011;74141;51.504;7.122;2024-02-15T08:11:42;8.88;;;4.05;;
84054;SDS011;74141;51.504;7.122;2024-02-15T08:14:07;7.93;;;3.90;;
84054;SDS011;74141;51.504;7.122;2024-02-15T08:16:35;8.48;;;3.97;;
84054;SDS011;74141;51.504;7.122;2024-02-15T08:19:02;9.50;;;3.90;;
84054;SDS011;74141;51.504;7.122;2024-02-15T08:21:30;12.52;;;4.38;;
84054;SDS011;74141;51.504;7.122;2024-02-15T08:24:01;6.25;;;3.80;;
84054;SDS011;74141;51.504;7.122;2024-02-15T08:26:30;8.70;;;4.20;;
84054;SDS011;74141;51.504;7.122;2024-02-15T08:29:01;9.20;;;5.15;;
84054;SDS011;74141;51.504;7.122;2024-02-15T08:31:28;9.60;;;4.00;;
84054;SDS011;74141;51.504;7.122;2024-02-15T08:33:55;9.27;;;4.20;;
84054;SDS011;74141;51.504;7.122;2024-02-15T08:36:20;8.90;;;3.90;;
84054;SDS011;74141;51.504;7.122;2024-02-15T08:38:46;9.10;;;3.65;;
84054;SDS011;74141;51.504;7.122;2024-02-15T08:41:12;4.93;;;3.25;;
84054;SDS011;74141;51.504;7.122;2024-02-15T08:43:37;9.93;;;4.05;;
84054;SDS011;74141;51.504;7.122;2024-02-15T08:46:05;6.97;;;3.55;;
84054;SDS011;74141;51.504;7.122;2024-02-15T08:48:31;6.47;;;3.65;;
84054;SDS011;74141;51.504;7.122;2024-02-15T08:50:57;7.63;;;3.13;;
84054;SDS011;74141;51.504;7.122;2024-02-15T08:53:22;6.53;;;3.50;;
84054;SDS011;74141;51.504;7.122;2024-02-15T08:55:49;10.77;;;4.07;;
84054;SDS011;74141;51.504;7.122;2024-02-15T08:58:14;8.90;;;4.00;;
84054;SDS011;74141;51.504;7.122;2024-02-15T09:00:40;12.77;;;4.22;;
84054;SDS011;74141;51.504;7.122;2024-02-15T09:03:10;6.68;;;3.70;;
84054;SDS011;74141;51.504;7.122;2024-02-15T09:05:36;11.00;;;3.72;;
84054;SDS011;74141;51.504;7.122;2024-02-15T09:08:02;11.82;;;4.53;;
84054;SDS011;74141;51.504;7.122;2024-02-15T09:10:29;6.22;;;3.53;;
84054;SDS011;74141;51.504;7.122;2024-02-15T09:12:55;7.40;;;3.90;;
84054;SDS011;74141;51.504;7.122;2024-02-15T09:15:21;6.82;;;3.67;;
84054;SDS011;74141;51.504;7.122;2024-02-15T09:17:47;8.85;;;3.78;;
84054;SDS011;74141;51.504;7.122;2024-02-15T09:20:13;7.32;;;3.92;;
84054;SDS011;74141;51.504;7.122;2024-02-15T09:22:58;8.30;;;4.00;;
84054;SDS011;74141;51.504;7.122;2024-02-15T09:25:24;15.23;;;4.88;;
84054;SDS011;74141;51.504;7.122;2024-02-15T09:27:49;8.90;;;3.92;;
84054;SDS011;74141;51.504;7.122;2024-02-15T09:30:16;9.02;;;4.05;;
84054;SDS011;74141;51.504;7.122;2024-02-15T09:32:42;9.93;;;3.63;;
84054;SDS011;74141;51.504;7.122;2024-02-15T09:35:08;10.00;;;4.35;;
84054;SDS011;74141;51.504;7.122;2024-02-15T09:37:35;7.20;;;3.08;;
84054;SDS011;74141;51.504;7.122;2024-02-15T09:40:03;10.20;;;4.25;;
84054;SDS011;74141;51.504;7.122;2024-02-15T09:42:32;6.10;;;4.07;;
84054;SDS011;74141;51.504;7.122;2024-02-15T09:45:01;11.50;;;3.70;;
84054;SDS011;74141;51.504;7.122;2024-02-15T09:47:45;8.05;;;3.60;;
84054;SDS011;74141;51.504;7.122;2024-02-15T09:50:15;5.13;;;3.13;;
84054;SDS011;74141;51.504;7.122;2024-02-15T09:52:44;7.68;;;3.60;;
84054;SDS011;74141;51.504;7.122;2024-02-15T09:55:15;4.63;;;2.90;;
84054;SDS011;74141;51.504;7.122;2024-02-15T09:57:42;5.07;;;2.72;;
84054;SDS011;74141;51.504;7.122;2024-02-15T10:00:09;6.25;;;3.30;;
84054;SDS011;74141;51.504;7.122;2024-02-15T10:05:05;4.93;;;2.78;;
84054;SDS011;74141;51.504;7.122;2024-02-15T10:07:30;5.47;;;3.40;;
84054;SDS011;74141;51.504;7.122;2024-02-15T10:09:56;7.73;;;3.33;;
84054;SDS011;74141;51.504;7.122;2024-02-15T10:12:21;6.80;;;2.60;;
84054;SDS011;74141;51.504;7.122;2024-02-15T10:14:48;5.15;;;3.10;;
84054;SDS011;74141;51.504;7.122;2024-02-15T10:17:20;12.60;;;3.28;;
84054;SDS011;74141;51.504;7.122;2024-02-15T10:20:03;7.18;;;2.83;;
84054;SDS011;74141;51.504;7.122;2024-02-15T10:22:29;5.13;;;3.03;;
84054;SDS011;74141;51.504;7.122;2024-02-15T10:25:13;4.17;;;2.30;;
84054;SDS011;74141;51.504;7.122;2024-02-15T10:27:42;4.32;;;2.28;;
84054;SDS011;74141;51.504;7.122;2024-02-15T10:30:14;8.27;;;2.53;;
84054;SDS011;74141;51.504;7.122;2024-02-15T10:32:41;3.65;;;2.30;;
84054;SDS011;74141;51.504;7.122;2024-02-15T10:35:06;4.05;;;2.03;;
84054;SDS011;74141;51.504;7.122;2024-02-15T10:37:32;4.45;;;2.53;;
84054;SDS011;74141;51.504;7.122;2024-02-15T10:40:04;5.68;;;2.40;;
84054;SDS011;74141;51.504;7.122;2024-02-15T10:42:32;5.75;;;2.20;;
84054;SDS011;74141;51.504;7.122;2024-02-15T10:44:59;5.07;;;2.05;;
84054;SDS011;74141;51.504;7.122;2024-02-15T10:47:30;4.70;;;2.30;;
84054;SDS011;74141;51.504;7.122;2024-02-15T10:49:55;6.88;;;2.55;;
84054;SDS011;74141;51.504;7.122;2024-02-15T10:52:22;5.97;;;3.67;;
84054;SDS011;74141;51.504;7.122;2024-02-15T10:54:55;4.70;;;2.70;;
84054;SDS011;74141;51.504;7.122;2024-02-15T10:57:30;3.85;;;2.17;;
84054;SDS011;74141;51.504;7.122;2024-02-15T10:59:58;6.57;;;2.45;;
84054;SDS011;74141;51.504;7.122;2024-02-15T11:04:58;3.95;;;2.08;;
84054;SDS011;74141;51.504;7.122;2024-02-15T11:07:28;6.05;;;2.30;;
84054;SDS011;74141;51.504;7.122;2024-02-15T11:09:55;3.53;;;2.00;;
84054;SDS011;74141;51.504;7.122;2024-02-15T11:12:21;3.70;;;2.38;;
84054;SDS011;74141;51.504;7.122;2024-02-15T11:14:48;4.85;;;2.20;;
84054;SDS011;74141;51.504;7.122;2024-02-15T11:20:10;4.30;;;2.30;;
84054;SDS011;74141;51.504;7.122;2024-02-15T11:22:56;6.03;;;2.10;;
84054;SDS011;74141;51.504;7.122;2024-02-15T11:25:31;4.28;;;2.33;;
84054;SDS011;74141;51.504;7.122;2024-02-15T11:28:09;4.85;;;1.90;;
84054;SDS011;74141;51.504;7.122;2024-02-15T11:33:28;6.30;;;2.05;;
84054;SDS011;74141;51.504;7.122;2024-02-15T11:36:06;6.18;;;1.90;;
84054;SDS011;74141;51.504;7.122;2024-02-15T11:38:37;3.42;;;2.10;;
84054;SDS011;74141;51.504;7.122;2024-02-15T11:41:08;3.63;;;1.80;;
84054;SDS011;74141;51.504;7.122;2024-02-15T11:46:13;3.75;;;2.20;;
84054;SDS011;74141;51.504;7.122;2024-02-15T11:48:39;3.55;;;2.17;;
84054;SDS011;74141;51.504;7.122;2024-02-15T11:51:05;4.50;;;2.40;;
84054;SDS011;74141;51.504;7.122;2024-02-15T11:53:36;5.75;;;2.47;;
84054;SDS011;74141;51.504;7.122;2024-02-15T11:56:02;6.70;;;2.50;;
84054;SDS011;74141;51.504;7.122;2024-02-15T11:58:30;3.67;;;2.08;;
84054;SDS011;74141;51.504;7.122;2024-02-15T12:01:07;5.68;;;2.35;;
84054;SDS011;74141;51.504;7.122;2024-02-15T12:03:53;3.25;;;1.75;;
84054;SDS011;74141;51.504;7.122;2024-02-15T12:06:38;6.60;;;2.05;;
84054;SDS011;74141;51.504;7.122;2024-02-15T12:09:22;3.33;;;2.17;;
84054;SDS011;74141;51.504;7.122;2024-02-15T12:12:06;4.75;;;2.72;;
84054;SDS011;74141;51.504;7.122;2024-02-15T12:14:59;5.90;;;2.13;;
84054;SDS011;74141;51.504;7.122;2024-02-15T12:17:44;5.97;;;2.10;;
84054;SDS011;74141;51.504;7.122;2024-02-15T12:20:28;3.38;;;2.20;;
84054;SDS011;74141;51.504;7.122;2024-02-15T12:22:53;4.03;;;2.25;;
84054;SDS011;74141;51.504;7.122;2024-02-15T12:25:19;6.70;;;2.13;;
84054;SDS011;74141;51.504;7.122;2024-02-15T12:27:46;5.75;;;2.85;;
84054;SDS011;74141;51.504;7.122;2024-02-15T12:30:18;5.68;;;2.78;;
84054;SDS011;74141;51.504;7.122;2024-02-15T12:32:46;11.52;;;3.97;;
84054;SDS011;74141;51.504;7.122;2024-02-15T12:35:15;3.10;;;2.00;;
84054;SDS011;74141;51.504;7.122;2024-02-15T12:40:29;7.38;;;1.95;;
84054;SDS011;74141;51.504;7.122;2024-02-15T12:42:55;4.28;;;2.25;;
84054;SDS011;74141;51.504;7.122;2024-02-15T12:45:21;4.43;;;2.00;;
84054;SDS011;74141;51.504;7.122;2024-02-15T12:47:47;4.07;;;2.08;;
84054;SDS011;74141;51.504;7.122;2024-02-15T12:50:15;4.57;;;1.95;;
84054;SDS011;74141;51.504;7.122;2024-02-15T12:52:42;5.53;;;2.03;;
84054;SDS011;74141;51.504;7.122;2024-02-15T12:57:47;5.90;;;2.65;;
84054;SDS011;74141;51.504;7.122;2024-02-15T13:00:19;5.28;;;1.63;;
84054;SDS011;74141;51.504;7.122;2024-02-15T13:02:53;3.40;;;2.05;;
84054;SDS011;74141;51.504;7.122;2024-02-15T13:05:20;6.78;;;2.05;;
84054;SDS011;74141;51.504;7.122;2024-02-15T13:07:50;3.05;;;1.80;;
84054;SDS011;74141;51.504;7.122;2024-02-15T13:10:16;3.55;;;2.13;;
84054;SDS011;74141;51.504;7.122;2024-02-15T13:12:42;2.65;;;2.03;;
84054;SDS011;74141;51.504;7.122;2024-02-15T13:15:14;4.80;;;2.13;;
84054;SDS011;74141;51.504;7.122;2024-02-15T13:17:45;7.55;;;2.17;;
84054;SDS011;74141;51.504;7.122;2024-02-15T13:20:16;5.28;;;1.90;;
84054;SDS011;74141;51.504;7.122;2024-02-15T13:22:45;4.65;;;2.08;;
84054;SDS011;74141;51.504;7.122;2024-02-15T13:25:12;4.88;;;2.72;;
84054;SDS011;74141;51.504;7.122;2024-02-15T13:27:41;5.70;;;2.10;;
84054;SDS011;74141;51.504;7.122;2024-02-15T13:30:08;3.88;;;1.92;;
84054;SDS011;74141;51.504;7.122;2024-02-15T13:32:38;6.68;;;2.25;;
84054;SDS011;74141;51.504;7.122;2024-02-15T13:35:06;7.82;;;2.03;;
84054;SDS011;74141;51.504;7.122;2024-02-15T13:37:39;3.42;;;1.80;;
84054;SDS011;74141;51.504;7.122;2024-02-15T13:40:09;4.63;;;2.22;;
84054;SDS011;74141;51.504;7.122;2024-02-15T13:42:40;3.05;;;1.90;;
84054;SDS011;74141;51.504;7.122;2024-02-15T13:45:17;5.00;;;1.98;;
84054;SDS011;74141;51.504;7.122;2024-02-15T13:47:46;5.82;;;1.60;;
84054;SDS011;74141;51.504;7.122;2024-02-15T13:50:15;6.80;;;2.05;;
84054;SDS011;74141;51.504;7.122;2024-02-15T13:52:42;4.97;;;2.08;;
84054;SDS011;74141;51.504;7.122;2024-02-15T13:55:12;3.03;;;1.98;;
84054;SDS011;74141;51.504;7.122;2024-02-15T13:57:38;6.03;;;2.15;;
84054;SDS011;74141;51.504;7.122;2024-02-15T14:00:05;4.35;;;1.83;;
84054;SDS011;74141;51.504;7.122;2024-02-15T14:02:31;3.15;;;1.70;;
84054;SDS011;74141;51.504;7.122;2024-02-15T14:04:56;5.22;;;2.15;;
84054;SDS011;74141;51.504;7.122;2024-02-15T14:07:21;2.63;;;1.65;;
84054;SDS011;74141;51.504;7.122;2024-02-15T14:09:47;6.80;;;2.33;;
84054;SDS011;74141;51.504;7.122;2024-02-15T14:12:12;3.87;;;1.90;;
84054;SDS011;74141;51.504;7.122;2024-02-15T14:14:39;3.70;;;1.83;;
84054;SDS011;74141;51.504;7.122;2024-02-15T14:17:05;5.05;;;1.98;;
84054;SDS011;74141;51.504;7.122;2024-02-15T14:19:30;3.58;;;2.05;;
84054;SDS011;74141;51.504;7.122;2024-02-15T14:21:56;5.30;;;2.08;;
84054;SDS011;74141;51.504;7.122;2024-02-15T14:24:21;4.50;;;2.00;;
84054;SDS011;74141;51.504;7.122;2024-02-15T14:26:48;3.05;;;1.85;;
84054;SDS011;74141;51.504;7.122;2024-02-15T14:29:13;5.80;;;2.08;;
84054;SDS011;74141;51.504;7.122;2024-02-15T14:31:39;4.07;;;2.28;;
84054;SDS011;74141;51.504;7.122;2024-02-15T14:34:23;5.78;;;2.08;;
84054;SDS011;74141;51.504;7.122;2024-02-15T14:36:50;5.18;;;2.00;;
84054;SDS011;74141;51.504;7.122;2024-02-15T14:39:16;7.35;;;2.88;;
84054;SDS011;74141;51.504;7.122;2024-02-15T14:41:41;3.38;;;2.55;;
84054;SDS011;74141;51.504;7.122;2024-02-15T14:44:07;4.53;;;2.20;;
84054;SDS011;74141;51.504;7.122;2024-02-15T14:46:33;3.42;;;2.03;;
84054;SDS011;74141;51.504;7.122;2024-02-15T14:49:00;4.20;;;2.00;;
84054;SDS011;74141;51.504;7.122;2024-02-15T14:51:27;2.70;;;1.70;;
84054;SDS011;74141;51.504;7.122;2024-02-15T14:53:52;2.60;;;1.77;;
84054;SDS011;74141;51.504;7.122;2024-02-15T14:56:18;7.20;;;2.67;;
84054;SDS011;74141;51.504;7.122;2024-02-15T14:58:44;4.07;;;2.10;;
84054;SDS011;74141;51.504;7.122;2024-02-15T15:01:09;6.03;;;2.05;;
84054;SDS011;74141;51.504;7.122;2024-02-15T15:03:35;6.15;;;2.28;;
84054;SDS011;74141;51.504;7.122;2024-02-15T15:06:02;5.43;;;2.10;;